Flight Track Log - Related Links

Times and Time Zones

All times are in EDT time to prevent confusion due to time zone crossing. See the UPS1337 flight status page for this flight to view local times or setup timezone preferences in your user account.

Time Position Orientation Groundspeed Altitude Reporting Facility
EDT Latitude Longitude Course Direction KTS MPH feet Rate Location/Type
Mon 09:42:51 PM 27.9000 -82.6833 180° South 158 182 800  Level Tampa TRACON
Mon 09:43:39 PM 27.8500 -82.6833 180° South 213 245 1,900 2,556 Climbing Tampa TRACON
Mon 09:44:39 PM 27.8000 -82.7000 196° South 234 269 5,400 3,174 Climbing Tampa TRACON
Mon 09:46:14 PM 27.8683 -82.7753 316° Northwest 268 308 10,100 2,477 Climbing Jacksonville Center
Mon 09:47:14 PM 27.9683 -82.7797 358° North 289 333 11,800 2,100 Climbing Jacksonville Center
Mon 09:48:14 PM 28.0831 -82.7844 358° North 351 404 14,300 2,550 Climbing Jacksonville Center
Mon 09:49:14 PM 28.1978 -82.7889 358° North 393 452 16,900 2,600 Climbing Jacksonville Center
Mon 09:50:14 PM 28.3147 -82.8194 347° North 414 476 19,500 2,400 Climbing Jacksonville Center
Mon 09:51:14 PM 28.4317 -82.8453 349° North 426 490 21,700 2,050 Climbing Jacksonville Center
Mon 09:52:14 PM 28.5569 -82.8783 347° North 439 505 23,600 2,000 Climbing Jacksonville Center
Mon 09:53:14 PM 28.6758 -82.9281 340° North 452 520 25,700 1,600 Climbing Jacksonville Center
Mon 09:54:14 PM 28.7969 -82.9708 343° North 452 520 26,800 1,600 Climbing Jacksonville Center
Mon 09:55:14 PM 28.9117 -83.0253 337° Northwest 447 514 28,900 1,850 Climbing Jacksonville Center
Mon 09:56:14 PM 29.0117 -83.1014 326° Northwest 441 507 30,500 1,400 Climbing Jacksonville Center
Mon 09:57:14 PM 29.1117 -83.1803 325° Northwest 436 502 31,700 1,150 Climbing Jacksonville Center
Mon 09:58:14 PM 29.2097 -83.2614 324° Northwest 436 502 32,800 1,100 Climbing Jacksonville Center
Mon 09:59:14 PM 29.3094 -83.3428 325° Northwest 436 502 33,900 600 Climbing Jacksonville Center
Mon 10:00:14 PM 29.4075 -83.4217 325° Northwest 436 502 34,000 50 Climbing Jacksonville Center
Mon 10:01:14 PM 29.5092 -83.5058 324° Northwest 436 502 34,000  Level Jacksonville Center
Mon 10:07:04 PM 30.1388 -83.9928 352° North 511 588 34,000  Level FlightAware ADS-B (KONZ)
Mon 10:07:35 PM 30.2137 -83.9990 355° North 519 597 34,000  Level FlightAware ADS-B (KONZ)
Mon 10:08:06 PM 30.2673 -84.0059 353° North 520 598 34,000  Level FlightAware ADS-B (KONZ)
Mon 10:08:45 PM 30.3807 -84.0210 354° North 520 598 34,000  Level FlightAware ADS-B (KONZ)
Mon 10:09:15 PM 30.4417 -84.0285 354° North 523 602 34,000  Level FlightAware ADS-B (KONZ)
Mon 10:09:45 PM 30.5166 -84.0377 354° North 524 603 34,000  Level FlightAware ADS-B (KONZ)
Mon 10:10:16 PM 30.5988 -84.0476 354° North 524 603 34,000  Level FlightAware ADS-B (KONZ)
Mon 10:10:55 PM 30.6954 -84.0593 354° North 525 604 34,000  Level FlightAware ADS-B (KONZ)
Mon 10:11:53 PM 30.8341 -84.0763 354° North 524 603 34,000  Level FlightAware ADS-B (KONZ)
Mon 10:13:14 PM 31.0186 -84.1022 354° North 517 595 34,000  Level Jacksonville Center
Mon 10:14:14 PM 31.1647 -84.1186 355° North 517 595 34,000  Level Jacksonville Center
Mon 10:15:53 PM 31.4000 -84.1508 353° North 529 609 34,000  Level Atlanta Center
Mon 10:16:53 PM 31.5442 -84.1681 354° North 529 609 34,000  Level Atlanta Center
Mon 10:17:53 PM 31.6881 -84.1853 354° North 529 609 34,000  Level Atlanta Center
Mon 10:18:53 PM 31.8069 -84.2003 354° North 529 609 34,000  Level Atlanta Center
Mon 10:19:53 PM 31.9656 -84.2200 354° North 524 603 34,000  Level Atlanta Center
Mon 10:20:53 PM 32.1117 -84.2400 353° North 519 597 34,000  Level Atlanta Center
Mon 10:21:53 PM 32.2578 -84.2575 354° North 519 597 34,000  Level Atlanta Center
Mon 10:22:53 PM 32.4017 -84.2725 355° North 519 597 34,000  Level Atlanta Center
Mon 10:23:53 PM 32.5478 -84.2925 353° North 519 597 34,000  Level Atlanta Center
Mon 10:24:53 PM 32.6897 -84.3078 355° North 519 597 34,000  Level Atlanta Center
Mon 10:25:53 PM 32.8317 -84.3306 352° North 519 597 34,000  Level Atlanta Center
Mon 10:26:53 PM 32.9736 -84.3483 354° North 519 597 34,000  Level Atlanta Center
Mon 10:27:53 PM 33.1197 -84.3661 354° North 519 597 34,000  Level Atlanta Center
Mon 10:33:04 PM 33.9962 -84.4679 354° North 517 595 34,000  Level FlightAware ADS-B (KDZJ)
Mon 10:33:43 PM 34.0908 -84.4798 354° North 520 598 34,000  Level FlightAware ADS-B (KDZJ)
Mon 10:34:24 PM 34.1897 -84.4924 354° North 517 595 34,000  Level FlightAware ADS-B (KDZJ)
Mon 10:35:04 PM 34.2853 -84.5045 354° North 520 598 34,000  Level FlightAware ADS-B (KDZJ)
Mon 10:35:44 PM 34.3841 -84.5170 354° North 519 597 34,000  Level FlightAware ADS-B (KDZJ)
Mon 10:36:24 PM 34.4794 -84.5292 354° North 518 596 34,000  Level FlightAware ADS-B (KDZJ)
Mon 10:37:04 PM 34.5762 -84.5416 354° North 520 598 34,000  Level FlightAware ADS-B (KDZJ)
Mon 10:37:44 PM 34.6735 -84.5540 354° North 521 600 34,000  Level FlightAware ADS-B (KDZJ)
Mon 10:38:24 PM 34.7701 -84.5663 354° North 520 598 34,000  Level FlightAware ADS-B (KDZJ)
Mon 10:39:04 PM 34.8685 -84.5790 354° North 530 610 34,000  Level FlightAware ADS-B (KDZJ)
Mon 10:39:44 PM 34.9655 -84.5914 354° North 519 597 34,000  Level FlightAware ADS-B (KDZJ)
Mon 10:40:24 PM 35.0638 -84.6040 354° North 515 593 34,000  Level FlightAware ADS-B (KDZJ)
Mon 10:41:04 PM 35.1589 -84.6164 354° North 518 596 34,000  Level FlightAware ADS-B (KDZJ)
Mon 10:41:38 PM 35.2415 -84.6272 354° North 518 596 34,000  Level FlightAware ADS-B (KDZJ)
Mon 10:42:53 PM 35.3078 -84.6369 354° North 520 598 34,000  Level Atlanta Center
Mon 10:43:53 PM 35.4517 -84.6558 354° North 520 598 34,000  Level Atlanta Center
Mon 10:44:53 PM 35.5997 -84.6772 353° North 520 598 34,000  Level Atlanta Center
Mon 10:45:53 PM 35.7417 -84.6936 355° North 520 598 34,000 -130 Level Atlanta Center
Mon 10:47:57 PM 36.0200 -84.7319 354° North 519 597 33,600 -551 Descending Indianapolis Center
Mon 10:48:58 PM 36.1606 -84.7517 354° North 516 594 32,300 -1,721 Descending Indianapolis Center
Mon 10:49:59 PM 36.3272 -84.7747 354° North 503 579 30,100 -1,230 Descending Indianapolis Center
Mon 10:51:00 PM 36.4672 -84.7933 354° North 504 580 29,800 -689 Descending Indianapolis Center
Mon 10:52:01 PM 36.6081 -84.8117 354° North 507 583 28,700 -1,686 Descending Indianapolis Center
Mon 10:53:01 PM 36.7447 -84.8294 354° North 491 565 26,400 -2,479 Descending Indianapolis Center
Mon 10:54:02 PM 36.8775 -84.8469 354° North 478 550 23,700 -2,508 Descending Indianapolis Center
Mon 10:55:03 PM 37.0050 -84.8642 354° North 454 522 21,300 -2,164 Descending Indianapolis Center
Mon 10:56:04 PM 37.1167 -84.8786 354° North 428 493 19,300 -2,754 Descending Indianapolis Center
Mon 10:57:05 PM 37.2531 -84.8969 354° North 421 484 15,700 -2,951 Descending Indianapolis Center
Mon 10:58:06 PM 37.3656 -84.9119 354° North 402 463 13,300 -1,918 Descending Indianapolis Center
Mon 10:59:07 PM 37.4736 -84.9264 354° North 389 448 11,800 -1,230 Descending Indianapolis Center
Mon 11:00:08 PM 37.5797 -84.9408 354° North 384 442 10,800 -836 Descending Indianapolis Center
Mon 11:01:09 PM 37.6767 -84.9808 342° North 352 405 10,100 -344 Descending Indianapolis Center
Mon 11:02:10 PM 37.7156 -85.0794 297° West 319 367 10,100  Level Indianapolis Center
Mon 11:03:11 PM 37.7483 -85.1767 293° West 288 331 10,100 -885 Level Indianapolis Center
Mon 11:04:12 PM 37.7758 -85.2608 292° West 253 291 8,300 -1,967 Descending Indianapolis Center
Mon 11:05:13 PM 37.8017 -85.3372 293° West 237 273 6,100 -1,659 Descending Indianapolis Center
Mon 11:06:15 PM 37.8261 -85.4094 293° West 236 272 4,900 -819 Descending Indianapolis Center
Mon 11:09:00 PM 37.9167 -85.5833 314° West 172 198 3,000 -380 Descending Louisville TRACON
Mon 11:11:15 PM 38.0000 -85.6667 335° Northwest 157 181 3,000  Level Louisville TRACON
Mon 11:12:21 PM 38.0317 -85.6981 322° Northwest 171 197 3,000 -94 Level Indianapolis Center
Mon 11:13:22 PM 38.0819 -85.7078 351° North 184 212 2,800 -197 Descending Indianapolis Center
Mon 11:15:00 PM 38.1741 -85.7365 211° Southwest  Level Estimated
Mon 11:22:00 PM 38.1741 -85.7365 208° Southwest  Level Estimated
Mon 11:23:00 PM 38.1741 -85.7365 208° Southwest  Level Estimated

Login

Don't have an account? Register now (free) for customized features, flight alerts, and more!